sensor_id;sensor_type;location;lat;lon;timestamp;temperature;humidity
13172;DHT22;6651;53.200;10.432;2024-03-29T00:01:16;8.00;99.90
13172;DHT22;6651;53.200;10.432;2024-03-29T00:03:42;8.00;99.90
13172;DHT22;6651;53.200;10.432;2024-03-29T00:06:08;8.00;99.90
13172;DHT22;6651;53.200;10.432;2024-03-29T00:08:34;8.00;99.90
13172;DHT22;6651;53.200;10.432;2024-03-29T00:10:59;7.90;99.90
13172;DHT22;6651;53.200;10.432;2024-03-29T00:13:25;7.90;99.90
13172;DHT22;6651;53.200;10.432;2024-03-29T00:15:53;7.90;99.90
13172;DHT22;6651;53.200;10.432;2024-03-29T00:18:19;7.90;99.90
13172;DHT22;6651;53.200;10.432;2024-03-29T00:20:44;7.90;99.90
13172;DHT22;6651;53.200;10.432;2024-03-29T00:23:10;7.80;99.90
13172;DHT22;6651;53.200;10.432;2024-03-29T00:25:35;7.80;99.90
13172;DHT22;6651;53.200;10.432;2024-03-29T00:28:02;7.80;99.90
13172;DHT22;6651;53.200;10.432;2024-03-29T00:30:28;7.80;99.90
13172;DHT22;6651;53.200;10.432;2024-03-29T00:32:54;7.80;99.90
13172;DHT22;6651;53.200;10.432;2024-03-29T00:35:20;7.70;99.90
13172;DHT22;6651;53.200;10.432;2024-03-29T00:37:46;7.70;99.90
13172;DHT22;6651;53.200;10.432;2024-03-29T00:40:11;7.60;99.90
13172;DHT22;6651;53.200;10.432;2024-03-29T00:42:37;7.70;99.90
13172;DHT22;6651;53.200;10.432;2024-03-29T00:45:03;7.60;99.90
13172;DHT22;6651;53.200;10.432;2024-03-29T00:47:29;7.60;99.90
13172;DHT22;6651;53.200;10.432;2024-03-29T00:49:54;7.50;99.90
13172;DHT22;6651;53.200;10.432;2024-03-29T00:52:20;7.50;99.90
13172;DHT22;6651;53.200;10.432;2024-03-29T00:54:45;7.50;99.90
13172;DHT22;6651;53.200;10.432;2024-03-29T00:57:11;7.40;99.90
13172;DHT22;6651;53.200;10.432;2024-03-29T00:59:39;7.30;99.90
13172;DHT22;6651;53.200;10.432;2024-03-29T01:02:04;7.30;99.90
13172;DHT22;6651;53.200;10.432;2024-03-29T01:04:30;7.20;99.90
13172;DHT22;6651;53.200;10.432;2024-03-29T01:06:55;7.30;99.90
13172;DHT22;6651;53.200;10.432;2024-03-29T01:09:21;7.30;99.90
13172;DHT22;6651;53.200;10.432;2024-03-29T01:11:47;7.30;99.90
13172;DHT22;6651;53.200;10.432;2024-03-29T01:14:12;7.20;99.90
13172;DHT22;6651;53.200;10.432;2024-03-29T01:16:38;7.10;99.90
13172;DHT22;6651;53.200;10.432;2024-03-29T01:19:04;7.10;99.90
13172;DHT22;6651;53.200;10.432;2024-03-29T01:21:30;7.00;99.90
13172;DHT22;6651;53.200;10.432;2024-03-29T01:23:56;7.00;99.90
13172;DHT22;6651;53.200;10.432;2024-03-29T01:26:22;7.10;99.90
13172;DHT22;6651;53.200;10.432;2024-03-29T01:28:47;7.10;99.90
13172;DHT22;6651;53.200;10.432;2024-03-29T01:31:13;7.10;99.90
13172;DHT22;6651;53.200;10.432;2024-03-29T01:33:39;7.10;99.90
13172;DHT22;6651;53.200;10.432;2024-03-29T01:36:07;7.10;99.90
13172;DHT22;6651;53.200;10.432;2024-03-29T01:38:33;7.10;99.90
13172;DHT22;6651;53.200;10.432;2024-03-29T01:40:59;7.10;99.90
13172;DHT22;6651;53.200;10.432;2024-03-29T01:43:25;7.00;99.90
13172;DHT22;6651;53.200;10.432;2024-03-29T01:45:54;7.00;99.90
13172;DHT22;6651;53.200;10.432;2024-03-29T01:48:22;7.00;99.90
13172;DHT22;6651;53.200;10.432;2024-03-29T01:50:48;7.00;99.90
13172;DHT22;6651;53.200;10.432;2024-03-29T01:53:15;7.00;99.90
13172;DHT22;6651;53.200;10.432;2024-03-29T01:55:42;7.10;99.90
13172;DHT22;6651;53.200;10.432;2024-03-29T01:58:09;7.00;99.90
13172;DHT22;6651;53.200;10.432;2024-03-29T02:00:42;7.10;99.90
13172;DHT22;6651;53.200;10.432;2024-03-29T02:03:09;7.10;99.90
13172;DHT22;6651;53.200;10.432;2024-03-29T02:05:42;7.00;99.90
13172;DHT22;6651;53.200;10.432;2024-03-29T02:08:08;7.10;99.90
13172;DHT22;6651;53.200;10.432;2024-03-29T02:10:35;7.00;99.90
13172;DHT22;6651;53.200;10.432;2024-03-29T02:13:01;7.10;99.90
13172;DHT22;6651;53.200;10.432;2024-03-29T02:15:30;7.10;99.90
13172;DHT22;6651;53.200;10.432;2024-03-29T02:17:57;7.10;99.90
13172;DHT22;6651;53.200;10.432;2024-03-29T02:20:23;7.10;99.90
13172;DHT22;6651;53.200;10.432;2024-03-29T02:22:59;7.10;99.90
13172;DHT22;6651;53.200;10.432;2024-03-29T02:25:25;7.10;99.90
13172;DHT22;6651;53.200;10.432;2024-03-29T02:27:51;7.00;99.90
13172;DHT22;6651;53.200;10.432;2024-03-29T02:30:18;7.00;99.90
13172;DHT22;6651;53.200;10.432;2024-03-29T02:32:44;7.10;99.90
13172;DHT22;6651;53.200;10.432;2024-03-29T02:35:09;7.10;99.90
13172;DHT22;6651;53.200;10.432;2024-03-29T02:37:35;7.00;99.90
13172;DHT22;6651;53.200;10.432;2024-03-29T02:40:02;7.00;99.90
13172;DHT22;6651;53.200;10.432;2024-03-29T02:42:28;7.00;99.90
13172;DHT22;6651;53.200;10.432;2024-03-29T02:44:53;7.00;99.90
13172;DHT22;6651;53.200;10.432;2024-03-29T02:47:21;7.00;99.90
13172;DHT22;6651;53.200;10.432;2024-03-29T02:49:47;7.00;99.90
13172;DHT22;6651;53.200;10.432;2024-03-29T02:52:12;6.90;99.90
13172;DHT22;6651;53.200;10.432;2024-03-29T02:54:39;6.90;99.90
13172;DHT22;6651;53.200;10.432;2024-03-29T02:57:05;6.90;99.90
13172;DHT22;6651;53.200;10.432;2024-03-29T02:59:30;6.90;99.90
13172;DHT22;6651;53.200;10.432;2024-03-29T03:01:56;6.90;99.90
13172;DHT22;6651;53.200;10.432;2024-03-29T03:04:21;6.90;99.90
13172;DHT22;6651;53.200;10.432;2024-03-29T03:06:47;6.80;99.90
13172;DHT22;6651;53.200;10.432;2024-03-29T03:09:13;6.80;99.90
13172;DHT22;6651;53.200;10.432;2024-03-29T03:11:57;6.80;99.90
13172;DHT22;6651;53.200;10.432;2024-03-29T03:14:22;6.70;99.90
13172;DHT22;6651;53.200;10.432;2024-03-29T03:16:48;6.70;99.90
13172;DHT22;6651;53.200;10.432;2024-03-29T03:19:13;6.70;99.90
13172;DHT22;6651;53.200;10.432;2024-03-29T03:21:39;6.60;99.90
13172;DHT22;6651;53.200;10.432;2024-03-29T03:24:05;6.60;99.90
13172;DHT22;6651;53.200;10.432;2024-03-29T03:26:31;6.60;99.90
13172;DHT22;6651;53.200;10.432;2024-03-29T03:28:56;6.60;99.90
13172;DHT22;6651;53.200;10.432;2024-03-29T03:31:22;6.60;99.90
13172;DHT22;6651;53.200;10.432;2024-03-29T03:33:47;6.60;99.90
13172;DHT22;6651;53.200;10.432;2024-03-29T03:36:13;6.60;99.90
13172;DHT22;6651;53.200;10.432;2024-03-29T03:38:38;6.50;99.90
13172;DHT22;6651;53.200;10.432;2024-03-29T03:41:05;6.50;99.90
13172;DHT22;6651;53.200;10.432;2024-03-29T03:43:30;6.60;99.90
13172;DHT22;6651;53.200;10.432;2024-03-29T03:46:01;6.60;99.90
13172;DHT22;6651;53.200;10.432;2024-03-29T03:48:27;6.60;99.90
13172;DHT22;6651;53.200;10.432;2024-03-29T03:50:55;6.60;99.90
13172;DHT22;6651;53.200;10.432;2024-03-29T03:53:20;6.50;99.90
13172;DHT22;6651;53.200;10.432;2024-03-29T03:55:46;6.50;99.90
13172;DHT22;6651;53.200;10.432;2024-03-29T03:58:12;6.40;99.90
13172;DHT22;6651;53.200;10.432;2024-03-29T04:00:37;6.50;99.90
13172;DHT22;6651;53.200;10.432;2024-03-29T04:03:03;6.50;99.90
13172;DHT22;6651;53.200;10.432;2024-03-29T04:05:29;6.40;99.90
13172;DHT22;6651;53.200;10.432;2024-03-29T04:07:57;6.40;99.90
13172;DHT22;6651;53.200;10.432;2024-03-29T04:10:22;6.30;99.90
13172;DHT22;6651;53.200;10.432;2024-03-29T04:12:50;6.30;99.90
13172;DHT22;6651;53.200;10.432;2024-03-29T04:15:16;6.20;99.90
13172;DHT22;6651;53.200;10.432;2024-03-29T04:17:42;6.10;99.90
13172;DHT22;6651;53.200;10.432;2024-03-29T04:20:08;6.10;99.90
13172;DHT22;6651;53.200;10.432;2024-03-29T04:22:34;6.10;99.90
13172;DHT22;6651;53.200;10.432;2024-03-29T04:24:59;6.00;99.90
13172;DHT22;6651;53.200;10.432;2024-03-29T04:27:26;6.00;99.90
13172;DHT22;6651;53.200;10.432;2024-03-29T04:29:52;6.10;99.90
13172;DHT22;6651;53.200;10.432;2024-03-29T04:32:18;6.00;99.90
13172;DHT22;6651;53.200;10.432;2024-03-29T04:34:47;6.10;99.90
13172;DHT22;6651;53.200;10.432;2024-03-29T04:37:13;6.10;99.90
13172;DHT22;6651;53.200;10.432;2024-03-29T04:39:39;6.10;99.90
13172;DHT22;6651;53.200;10.432;2024-03-29T04:42:04;6.10;99.90
13172;DHT22;6651;53.200;10.432;2024-03-29T04:44:30;6.10;99.90
13172;DHT22;6651;53.200;10.432;2024-03-29T04:46:55;6.20;99.90
13172;DHT22;6651;53.200;10.432;2024-03-29T04:49:24;6.20;99.90
13172;DHT22;6651;53.200;10.432;2024-03-29T04:52:06;6.30;99.90
13172;DHT22;6651;53.200;10.432;2024-03-29T04:54:32;6.30;99.90
13172;DHT22;6651;53.200;10.432;2024-03-29T04:57:01;6.40;99.90
13172;DHT22;6651;53.200;10.432;2024-03-29T04:59:29;6.50;99.90
13172;DHT22;6651;53.200;10.432;2024-03-29T05:01:55;6.60;99.90
13172;DHT22;6651;53.200;10.432;2024-03-29T05:04:24;6.60;99.90
13172;DHT22;6651;53.200;10.432;2024-03-29T05:06:58;6.70;99.90
13172;DHT22;6651;53.200;10.432;2024-03-29T05:09:24;6.70;99.90
13172;DHT22;6651;53.200;10.432;2024-03-29T05:11:50;6.70;99.90
13172;DHT22;6651;53.200;10.432;2024-03-29T05:14:17;6.80;99.90
13172;DHT22;6651;53.200;10.432;2024-03-29T05:16:46;6.80;99.90
13172;DHT22;6651;53.200;10.432;2024-03-29T05:19:15;6.80;99.90
13172;DHT22;6651;53.200;10.432;2024-03-29T05:21:42;6.80;99.90
13172;DHT22;6651;53.200;10.432;2024-03-29T05:24:08;6.90;99.90
13172;DHT22;6651;53.200;10.432;2024-03-29T05:26:34;6.90;99.90
13172;DHT22;6651;53.200;10.432;2024-03-29T05:29:00;6.90;99.90
13172;DHT22;6651;53.200;10.432;2024-03-29T05:31:26;6.90;99.90
13172;DHT22;6651;53.200;10.432;2024-03-29T05:33:52;7.00;99.90
13172;DHT22;6651;53.200;10.432;2024-03-29T05:36:18;7.10;99.90
13172;DHT22;6651;53.200;10.432;2024-03-29T05:38:44;7.10;99.90
13172;DHT22;6651;53.200;10.432;2024-03-29T05:41:11;7.10;99.90
13172;DHT22;6651;53.200;10.432;2024-03-29T05:43:38;7.10;99.90
13172;DHT22;6651;53.200;10.432;2024-03-29T05:46:05;7.20;99.90
13172;DHT22;6651;53.200;10.432;2024-03-29T05:48:30;7.10;99.90
13172;DHT22;6651;53.200;10.432;2024-03-29T05:50:56;7.20;99.90
13172;DHT22;6651;53.200;10.432;2024-03-29T05:53:21;7.30;99.90
13172;DHT22;6651;53.200;10.432;2024-03-29T05:55:47;7.30;99.90
13172;DHT22;6651;53.200;10.432;2024-03-29T05:58:13;7.30;99.90
13172;DHT22;6651;53.200;10.432;2024-03-29T06:00:43;7.40;99.90
13172;DHT22;6651;53.200;10.432;2024-03-29T06:03:09;7.40;99.90
13172;DHT22;6651;53.200;10.432;2024-03-29T06:05:34;7.40;99.90
13172;DHT22;6651;53.200;10.432;2024-03-29T06:08:00;7.40;99.90
13172;DHT22;6651;53.200;10.432;2024-03-29T06:10:26;7.50;99.90
13172;DHT22;6651;53.200;10.432;2024-03-29T06:12:51;7.50;99.90
13172;DHT22;6651;53.200;10.432;2024-03-29T06:15:17;7.60;99.90
13172;DHT22;6651;53.200;10.432;2024-03-29T06:18:01;7.60;99.90
13172;DHT22;6651;53.200;10.432;2024-03-29T06:20:27;7.70;99.90
13172;DHT22;6651;53.200;10.432;2024-03-29T06:22:53;7.70;99.90
13172;DHT22;6651;53.200;10.432;2024-03-29T06:25:18;7.80;99.90
13172;DHT22;6651;53.200;10.432;2024-03-29T06:27:44;7.90;99.90
13172;DHT22;6651;53.200;10.432;2024-03-29T06:30:14;7.90;99.90
13172;DHT22;6651;53.200;10.432;2024-03-29T06:32:41;7.90;99.90
13172;DHT22;6651;53.200;10.432;2024-03-29T06:35:07;8.00;99.90
13172;DHT22;6651;53.200;10.432;2024-03-29T06:37:33;8.10;99.90
13172;DHT22;6651;53.200;10.432;2024-03-29T06:39:58;8.10;99.90
13172;DHT22;6651;53.200;10.432;2024-03-29T06:42:24;8.20;99.90
13172;DHT22;6651;53.200;10.432;2024-03-29T06:44:49;8.10;99.90
13172;DHT22;6651;53.200;10.432;2024-03-29T06:47:15;8.10;99.90
13172;DHT22;6651;53.200;10.432;2024-03-29T06:49:41;8.20;99.90
13172;DHT22;6651;53.200;10.432;2024-03-29T06:52:06;8.30;99.90
13172;DHT22;6651;53.200;10.432;2024-03-29T06:54:32;8.40;99.90
13172;DHT22;6651;53.200;10.432;2024-03-29T06:56:59;8.50;99.90
13172;DHT22;6651;53.200;10.432;2024-03-29T06:59:25;8.60;99.90
13172;DHT22;6651;53.200;10.432;2024-03-29T07:01:51;8.70;99.90
13172;DHT22;6651;53.200;10.432;2024-03-29T07:04:21;8.70;99.90
13172;DHT22;6651;53.200;10.432;2024-03-29T07:06:47;8.80;99.90
13172;DHT22;6651;53.200;10.432;2024-03-29T07:09:14;8.90;99.90
13172;DHT22;6651;53.200;10.432;2024-03-29T07:11:40;8.90;99.90
13172;DHT22;6651;53.200;10.432;2024-03-29T07:14:05;9.00;99.90
13172;DHT22;6651;53.200;10.432;2024-03-29T07:16:31;9.00;99.90
13172;DHT22;6651;53.200;10.432;2024-03-29T07:18:57;9.00;99.90
13172;DHT22;6651;53.200;10.432;2024-03-29T07:21:24;9.10;99.90
13172;DHT22;6651;53.200;10.432;2024-03-29T07:23:50;9.10;99.90
13172;DHT22;6651;53.200;10.432;2024-03-29T07:26:16;9.20;99.90
13172;DHT22;6651;53.200;10.432;2024-03-29T07:28:41;9.20;99.90
13172;DHT22;6651;53.200;10.432;2024-03-29T07:31:08;9.20;99.90
13172;DHT22;6651;53.200;10.432;2024-03-29T07:33:34;9.30;99.90
13172;DHT22;6651;53.200;10.432;2024-03-29T07:36:00;9.30;99.90
13172;DHT22;6651;53.200;10.432;2024-03-29T07:38:25;9.30;99.90
13172;DHT22;6651;53.200;10.432;2024-03-29T07:40:52;9.30;99.90
13172;DHT22;6651;53.200;10.432;2024-03-29T07:43:23;9.30;99.90
13172;DHT22;6651;53.200;10.432;2024-03-29T07:45:49;9.40;99.90
13172;DHT22;6651;53.200;10.432;2024-03-29T07:48:18;9.40;99.90
13172;DHT22;6651;53.200;10.432;2024-03-29T07:50:45;9.40;99.90
13172;DHT22;6651;53.200;10.432;2024-03-29T07:53:11;9.40;99.90
13172;DHT22;6651;53.200;10.432;2024-03-29T07:55:38;9.30;99.90
13172;DHT22;6651;53.200;10.432;2024-03-29T07:58:05;9.30;99.90
13172;DHT22;6651;53.200;10.432;2024-03-29T08:00:33;9.30;99.90
13172;DHT22;6651;53.200;10.432;2024-03-29T08:02:59;9.30;99.90
13172;DHT22;6651;53.200;10.432;2024-03-29T08:05:26;9.30;99.90
13172;DHT22;6651;53.200;10.432;2024-03-29T08:07:52;9.30;99.90
13172;DHT22;6651;53.200;10.432;2024-03-29T08:10:18;9.30;99.90
13172;DHT22;6651;53.200;10.432;2024-03-29T08:12:43;9.30;99.90
13172;DHT22;6651;53.200;10.432;2024-03-29T08:15:09;9.20;99.90
13172;DHT22;6651;53.200;10.432;2024-03-29T08:17:35;9.20;99.90
13172;DHT22;6651;53.200;10.432;2024-03-29T08:20:01;9.20;99.90
13172;DHT22;6651;53.200;10.432;2024-03-29T08:22:28;9.10;99.90
13172;DHT22;6651;53.200;10.432;2024-03-29T08:24:54;9.10;99.90
13172;DHT22;6651;53.200;10.432;2024-03-29T08:27:20;9.10;99.90
13172;DHT22;6651;53.200;10.432;2024-03-29T08:29:46;9.10;99.90
13172;DHT22;6651;53.200;10.432;2024-03-29T08:32:12;9.10;99.90
13172;DHT22;6651;53.200;10.432;2024-03-29T08:34:38;9.10;99.90
13172;DHT22;6651;53.200;10.432;2024-03-29T08:37:04;9.10;99.90
13172;DHT22;6651;53.200;10.432;2024-03-29T08:39:30;9.10;99.90
13172;DHT22;6651;53.200;10.432;2024-03-29T08:41:57;9.10;99.90
13172;DHT22;6651;53.200;10.432;2024-03-29T08:44:23;9.20;99.90
13172;DHT22;6651;53.200;10.432;2024-03-29T08:46:50;9.10;99.90
13172;DHT22;6651;53.200;10.432;2024-03-29T08:49:16;9.20;99.90
13172;DHT22;6651;53.200;10.432;2024-03-29T08:51:41;9.20;99.90
13172;DHT22;6651;53.200;10.432;2024-03-29T08:54:07;9.30;99.90
13172;DHT22;6651;53.200;10.432;2024-03-29T08:56:33;9.20;99.90
13172;DHT22;6651;53.200;10.432;2024-03-29T08:59:05;9.20;99.90
13172;DHT22;6651;53.200;10.432;2024-03-29T09:01:37;9.10;99.90
13172;DHT22;6651;53.200;10.432;2024-03-29T09:04:03;9.20;99.90
13172;DHT22;6651;53.200;10.432;2024-03-29T09:06:32;9.30;99.90
13172;DHT22;6651;53.200;10.432;2024-03-29T09:08:58;9.40;99.90
13172;DHT22;6651;53.200;10.432;2024-03-29T09:11:24;9.30;99.90
13172;DHT22;6651;53.200;10.432;2024-03-29T09:13:50;9.30;99.90
13172;DHT22;6651;53.200;10.432;2024-03-29T09:16:15;9.30;99.90
13172;DHT22;6651;53.200;10.432;2024-03-29T09:18:41;9.20;99.90
13172;DHT22;6651;53.200;10.432;2024-03-29T09:21:07;9.20;99.90
13172;DHT22;6651;53.200;10.432;2024-03-29T09:23:34;9.20;99.90
13172;DHT22;6651;53.200;10.432;2024-03-29T09:26:00;9.10;99.90
13172;DHT22;6651;53.200;10.432;2024-03-29T09:28:29;9.00;99.90
13172;DHT22;6651;53.200;10.432;2024-03-29T09:31:00;9.00;99.90
13172;DHT22;6651;53.200;10.432;2024-03-29T09:33:26;9.10;99.90
13172;DHT22;6651;53.200;10.432;2024-03-29T09:35:51;9.00;99.90
13172;DHT22;6651;53.200;10.432;2024-03-29T09:38:19;9.10;99.90
13172;DHT22;6651;53.200;10.432;2024-03-29T09:40:45;9.20;99.90
13172;DHT22;6651;53.200;10.432;2024-03-29T09:43:14;9.20;99.90
13172;DHT22;6651;53.200;10.432;2024-03-29T09:45:40;9.30;99.90
13172;DHT22;6651;53.200;10.432;2024-03-29T09:48:08;9.30;99.90
13172;DHT22;6651;53.200;10.432;2024-03-29T09:50:37;9.40;99.90
13172;DHT22;6651;53.200;10.432;2024-03-29T09:53:05;9.40;99.90
13172;DHT22;6651;53.200;10.432;2024-03-29T09:55:30;9.40;99.90
13172;DHT22;6651;53.200;10.432;2024-03-29T09:57:57;9.50;99.90
13172;DHT22;6651;53.200;10.432;2024-03-29T10:00:23;9.40;99.90
13172;DHT22;6651;53.200;10.432;2024-03-29T10:02:50;9.50;99.90
13172;DHT22;6651;53.200;10.432;2024-03-29T10:05:18;9.50;99.90
13172;DHT22;6651;53.200;10.432;2024-03-29T10:07:46;9.50;99.90
13172;DHT22;6651;53.200;10.432;2024-03-29T10:10:13;9.50;99.90
13172;DHT22;6651;53.200;10.432;2024-03-29T10:12:38;9.50;99.90
13172;DHT22;6651;53.200;10.432;2024-03-29T10:15:04;9.50;99.90
13172;DHT22;6651;53.200;10.432;2024-03-29T10:17:34;9.50;99.90
13172;DHT22;6651;53.200;10.432;2024-03-29T10:20:01;9.60;99.90
13172;DHT22;6651;53.200;10.432;2024-03-29T10:22:40;9.50;99.90
13172;DHT22;6651;53.200;10.432;2024-03-29T10:25:06;9.50;99.90
13172;DHT22;6651;53.200;10.432;2024-03-29T10:27:32;9.50;99.90
13172;DHT22;6651;53.200;10.432;2024-03-29T10:29:59;9.50;99.90
13172;DHT22;6651;53.200;10.432;2024-03-29T10:32:24;9.40;99.90
13172;DHT22;6651;53.200;10.432;2024-03-29T10:34:51;9.50;99.90
13172;DHT22;6651;53.200;10.432;2024-03-29T10:37:17;9.50;99.90
13172;DHT22;6651;53.200;10.432;2024-03-29T10:39:50;9.50;99.90
13172;DHT22;6651;53.200;10.432;2024-03-29T10:42:17;9.50;99.90
13172;DHT22;6651;53.200;10.432;2024-03-29T10:44:43;9.50;99.90
13172;DHT22;6651;53.200;10.432;2024-03-29T10:47:09;9.60;99.90
13172;DHT22;6651;53.200;10.432;2024-03-29T10:49:38;9.60;99.90
13172;DHT22;6651;53.200;10.432;2024-03-29T10:52:06;9.60;99.90
13172;DHT22;6651;53.200;10.432;2024-03-29T10:54:34;9.70;99.90
13172;DHT22;6651;53.200;10.432;2024-03-29T10:57:07;9.80;99.90
13172;DHT22;6651;53.200;10.432;2024-03-29T10:59:47;9.90;99.90
13172;DHT22;6651;53.200;10.432;2024-03-29T11:02:28;10.00;99.90
13172;DHT22;6651;53.200;10.432;2024-03-29T11:04:58;10.20;99.90
13172;DHT22;6651;53.200;10.432;2024-03-29T11:07:24;10.40;99.90
13172;DHT22;6651;53.200;10.432;2024-03-29T11:09:53;10.60;99.90
13172;DHT22;6651;53.200;10.432;2024-03-29T11:12:23;10.80;99.90
13172;DHT22;6651;53.200;10.432;2024-03-29T11:15:04;10.90;99.90
13172;DHT22;6651;53.200;10.432;2024-03-29T11:17:30;11.00;99.90
13172;DHT22;6651;53.200;10.432;2024-03-29T11:19:58;11.10;99.90
13172;DHT22;6651;53.200;10.432;2024-03-29T11:22:24;11.30;99.90
13172;DHT22;6651;53.200;10.432;2024-03-29T11:24:53;11.40;99.90
13172;DHT22;6651;53.200;10.432;2024-03-29T11:27:23;11.70;99.90
13172;DHT22;6651;53.200;10.432;2024-03-29T11:29:49;12.00;99.90
13172;DHT22;6651;53.200;10.432;2024-03-29T11:32:34;12.20;99.90
